William P Hobby Airport
KHOU : now visible

Airfield :











YOU CAN JOIN US ON...

 
LOGIN :

Register | Disclaimer

   EN    FR    IT 

 









Legend :    VFR   Marginal VFR   IFR   Intensive IFR   Very Intensive IFR
Visi :
Ceiling :
>= 8 km
>= 3000ft
5 to 8 km
1000 to 3000 ft
1500m to 5 km
500 to 1000 ft
800 to 1500m
200 to 500 ft
< 800m
< 200 ft
Symbols :   Thunderstorms  Fog  Heavy snow  Heavy precipitations  Wind > 20 kt







- Airport Elevation : 46 ft
- IATA code : HOU


KHOU - William P Hobby

CURRENT METAR :
  • 162153Z 08015KT 10SM FEW040 SCT060 BKN090 BKN250 28/23 A2991 RMK AO2 RAE05 TSE02 SLP134 TS DSIPTD P0000 T02830228

EXPIRED METARs :
  • 162102Z 08012KT 10SM -RA SCT039 BKN065 BKN090 BKN250 27/23 A2991 RMK AO2 TSE02 TS DSIPTD P0000 T02720228
  • 162053Z 08012KT 10SM -TSRA SCT036CB BKN065 OVC100 27/23 A2992 RMK AO2 PK WND 08033/2029 RAB28 TSB38 SLP135 OCNL LTGIC N TS N MOV W P0007 60012 T02720228 55016
  • 162039Z 07017G32KT 5SM -TSRA SCT038 BKN055 OVC090 26/22 A2992 RMK AO2 PK WND 08033/2029 LTG DSNT NE RAB28 TSB38 OCNL LTGIC N TS N MOV W P0007 T02610217
  • 161953Z 08009KT 10SM SCT030 SCT080 BKN140 BKN250 30/22 A2991 RMK AO2 RAB13E23 SLP133 P0000 T03000222

TAF KHOU
Valid from the 16 at 21:00 until the 17 at 18:00 UTC


162106Z 1621/1718 08014G25KT P6SM VCTS BKN040CB BKN120
TEMPO 1621/1622 VRB15G30KT 5SM TSRA BKN035CB
FM170200 09008KT P6SM SCT040 BKN120
FM170800 07006KT P6SM VCSH SCT025 BKN035
FM171400 09010G20KT P6SM VCTS SCT030CB BKN050
No reported NOTAMs for that airfield.



MET'MAP, your aeronautical weather chart ! - Copyright ORBIFLY December 2007 - Disclaimer

ORBIFLY MET'MAP TEAM :

Programming & Development : Alexandra Zaïnal
Concept & Development : Baudouin d'Aumeries
Co-Development & Prog : Marc-Olivier Méhu
Technical & hardware support : Manuel Goepfert

Contact : metmap@orbifly.com




SOURCES & CREDITS :

   NOAA       Earth
Advisory